Time;durP1;ratioP1;P1;durP2;ratioP2;P2;SDS_P1;SDS_P2;PMS_P1;PMS_P2;Temp;Humidity;BMP_temperature;BMP_pressure;BME280_temperature;BME280_humidity;BME280_pressure;Samples;Min_cycle;Max_cycle;Signal;HPM_P1;HPM_P2
2022/03/17 00:02:50;;;;;;;0.20;0.00;;;15.60;99.90;;;;;;20808912;28;20202;-67
2022/03/17 00:12:55;;;;;;;0.20;0.00;;;15.50;99.90;;;;;;20791413;28;20399;-67
2022/03/17 00:22:59;;;;;;;0.20;0.10;;;15.10;99.90;;;;;;20789106;28;20210;-67
2022/03/17 00:33:05;;;;;;;0.20;0.00;;;15.10;99.90;;;;;;20807859;28;20250;-67
2022/03/17 00:43:11;;;;;;;0.20;0.00;;;15.10;99.90;;;;;;20787623;28;20203;-80
2022/03/17 00:53:16;;;;;;;0.20;0.10;;;14.40;99.90;;;;;;20804713;28;20222;-78
2022/03/17 01:03:20;;;;;;;0.20;0.10;;;13.90;99.90;;;;;;20804173;28;20203;-76
2022/03/17 01:13:25;;;;;;;0.20;0.10;;;13.80;99.90;;;;;;20785453;28;20219;-77
2022/03/17 01:23:29;;;;;;;0.20;0.00;;;13.60;99.90;;;;;;20803933;28;20206;-76
2022/03/17 01:33:34;;;;;;;0.20;0.10;;;13.50;99.90;;;;;;20800708;28;20257;-67
2022/03/17 01:43:38;;;;;;;0.37;0.27;;;13.60;99.90;;;;;;20803181;28;20213;-70
2022/03/17 01:53:44;;;;;;;0.20;0.00;;;13.90;99.90;;;;;;20781833;28;20235;-77
2022/03/17 02:03:49;;;;;;;0.20;0.00;;;14.10;99.90;;;;;;20782903;28;20210;-78
2022/03/17 02:13:54;;;;;;;0.20;0.00;;;14.00;99.90;;;;;;20799395;28;20226;-68
2022/03/17 02:34:20;;;;;;;0.20;0.00;;;14.00;99.90;;;;;;20798987;28;20230;-68
2022/03/17 02:44:26;;;;;;;0.20;0.00;;;14.00;99.90;;;;;;20798927;28;20206;-76
2022/03/17 02:54:29;;;;;;;0.20;0.00;;;14.10;99.90;;;;;;20798168;28;20226;-74
2022/03/17 03:04:34;;;;;;;0.93;0.93;;;14.20;99.90;;;;;;20798007;28;20195;-66
2022/03/17 03:14:38;;;;;;;0.20;0.00;;;14.20;99.90;;;;;;20804639;28;20227;-66
2022/03/17 03:24:43;;;;;;;0.20;0.10;;;14.10;99.90;;;;;;20812096;28;20422;-66
2022/03/17 03:34:47;;;;;;;0.20;0.03;;;14.00;99.90;;;;;;20811154;28;20241;-66
2022/03/17 03:44:52;;;;;;;0.20;0.00;;;13.90;99.90;;;;;;20793351;28;20218;-66
2022/03/17 03:54:56;;;;;;;0.20;0.10;;;13.90;99.90;;;;;;20809695;28;20240;-66
2022/03/17 04:05:01;;;;;;;0.20;0.00;;;13.80;99.90;;;;;;20809545;28;20226;-66
2022/03/17 04:15:06;;;;;;;0.20;0.10;;;13.80;99.90;;;;;;20806275;28;20246;-77
2022/03/17 04:25:11;;;;;;;0.20;0.00;;;13.90;99.90;;;;;;20806303;28;20242;-80
2022/03/17 04:35:15;;;;;;;0.20;0.00;;;13.90;99.90;;;;;;20803572;28;20245;-67
2022/03/17 04:45:20;;;;;;;0.20;0.10;;;13.90;99.90;;;;;;20805024;28;20227;-66
2022/03/17 04:55:24;;;;;;;0.20;0.03;;;13.80;99.90;;;;;;20803337;28;20253;-67
2022/03/17 05:05:29;;;;;;;0.20;0.10;;;13.80;99.90;;;;;;20786902;28;20205;-67
2022/03/17 05:15:33;;;;;;;0.20;0.00;;;13.90;99.90;;;;;;20802119;28;20223;-79
2022/03/17 05:25:39;;;;;;;0.20;0.07;;;13.90;99.90;;;;;;20801734;28;20239;-81
2022/03/17 05:35:44;;;;;;;0.20;0.00;;;13.90;99.90;;;;;;20785397;28;20521;-80
2022/03/17 05:45:50;;;;;;;0.20;0.00;;;13.90;99.90;;;;;;20780526;28;20298;-82
2022/03/17 05:55:54;;;;;;;0.20;0.10;;;13.80;99.90;;;;;;20797975;28;20259;-67
2022/03/17 06:06:00;;;;;;;0.20;0.00;;;13.80;99.90;;;;;;20797706;28;20210;-67
2022/03/17 06:16:05;;;;;;;0.20;0.07;;;13.80;99.90;;;;;;20795982;28;20245;-66
2022/03/17 06:26:11;;;;;;;0.20;0.10;;;13.90;99.90;;;;;;20775952;28;20253;-66
2022/03/17 06:36:15;;;;;;;0.20;0.00;;;13.80;99.90;;;;;;20795870;28;20234;-68
2022/03/17 06:46:20;;;;;;;0.20;0.10;;;13.90;99.90;;;;;;20797636;28;20701;-67
2022/03/17 06:56:23;;;;;;;0.20;0.00;;;14.00;99.90;;;;;;20790266;28;20234;-66
2022/03/17 07:06:29;;;;;;;0.20;0.00;;;14.10;99.90;;;;;;20804179;28;20210;-68
2022/03/17 07:16:32;;;;;;;0.20;0.03;;;14.20;99.90;;;;;;20803516;28;20223;-62
2022/03/17 07:26:41;;;;;;;0.20;0.03;;;14.40;99.90;;;;;;20803538;28;20237;-67
2022/03/17 07:36:45;;;;;;;0.20;0.00;;;14.60;99.90;;;;;;20802794;28;20234;-68
2022/03/17 07:46:50;;;;;;;0.20;0.00;;;14.70;99.90;;;;;;20802048;28;20482;-67
2022/03/17 07:56:55;;;;;;;0.20;0.03;;;14.80;99.90;;;;;;20799274;28;20352;-75
2022/03/17 08:07:01;;;;;;;0.20;0.00;;;14.90;99.90;;;;;;20737598;28;20223;-76
2022/03/17 08:17:05;;;;;;;0.20;0.00;;;14.90;99.90;;;;;;20752796;28;20226;-76
2022/03/17 08:27:11;;;;;;;0.20;0.00;;;15.10;99.90;;;;;;20775406;28;20279;-77
2022/03/17 08:37:19;;;;;;;0.20;0.00;;;15.30;99.90;;;;;;20757536;28;20230;-75
2022/03/17 08:57:45;;;;;;;0.20;0.00;;;15.50;99.90;;;;;;20794985;28;20238;-78
2022/03/17 09:07:50;;;;;;;0.20;0.00;;;15.50;99.90;;;;;;20749556;28;20207;-77
2022/03/17 09:17:54;;;;;;;0.20;0.10;;;15.50;99.90;;;;;;20730515;28;20231;-76
2022/03/17 09:27:59;;;;;;;0.20;0.10;;;15.50;99.90;;;;;;20720041;28;20506;-79
2022/03/17 09:38:04;;;;;;;0.20;0.00;;;15.40;99.90;;;;;;20720195;28;20252;-82
2022/03/17 09:48:10;;;;;;;0.20;0.00;;;15.50;99.90;;;;;;20722788;28;20210;-78
2022/03/17 09:58:14;;;;;;;0.20;0.10;;;16.00;99.90;;;;;;20699016;28;20239;-76
2022/03/17 10:08:21;;;;;;;0.20;0.10;;;16.40;99.90;;;;;;20718462;28;20206;-76
2022/03/17 10:18:25;;;;;;;0.20;0.00;;;16.60;99.90;;;;;;20742034;28;20228;-77
2022/03/17 10:28:31;;;;;;;0.20;0.17;;;16.80;99.90;;;;;;20797885;28;20230;-66
2022/03/17 10:38:42;;;;;;;0.20;0.20;;;16.50;99.90;;;;;;20780915;28;20222;-67
2022/03/17 10:48:58;;;;;;;0.20;0.10;;;17.00;99.90;;;;;;20778338;28;20198;-64
2022/03/17 10:59:03;;;;;;;0.20;0.10;;;17.10;99.90;;;;;;20779484;28;20226;-64
2022/03/17 11:09:24;;;;;;;0.20;0.00;;;16.80;99.90;;;;;;20795059;28;20214;-64
2022/03/17 11:19:28;;;;;;;0.20;0.00;;;16.60;99.90;;;;;;20779918;28;20478;-64
2022/03/17 11:29:39;;;;;;;0.20;0.10;;;17.20;99.90;;;;;;20777810;28;20250;-65
2022/03/17 11:39:51;;;;;;;0.20;0.10;;;17.70;99.90;;;;;;20792417;28;20281;-74
2022/03/17 11:49:56;;;;;;;0.20;0.10;;;17.70;99.90;;;;;;20793391;28;20306;-74
2022/03/17 12:00:00;;;;;;;0.20;0.10;;;17.80;99.90;;;;;;20790844;28;20222;-71
2022/03/17 12:10:06;;;;;;;0.20;0.00;;;18.20;99.90;;;;;;20792403;28;20594;-75
2022/03/17 12:20:11;;;;;;;0.20;0.00;;;18.40;99.90;;;;;;20791701;28;20241;-67
2022/03/17 12:30:18;;;;;;;0.20;0.00;;;18.60;99.90;;;;;;20789384;28;20238;-66
2022/03/17 12:40:22;;;;;;;0.20;0.20;;;18.10;99.90;;;;;;20768429;28;20971;-74
2022/03/17 12:50:30;;;;;;;0.20;0.07;;;17.70;99.90;;;;;;20785988;28;20345;-73
2022/03/17 13:00:34;;;;;;;0.20;0.00;;;18.00;99.90;;;;;;20788064;28;20234;-75
2022/03/17 13:21:02;;;;;;;0.40;0.40;;;18.00;99.90;;;;;;20755816;28;20226;-70
2022/03/17 14:57:50;;;;;;;0.20;0.10;;;18.00;99.90;;;;;;20784724;28;21083;-69
2022/03/17 15:07:55;;;;;;;0.20;0.00;;;18.00;99.90;;;;;;20798966;28;20243;-75
2022/03/17 15:18:01;;;;;;;0.30;0.30;;;17.40;99.90;;;;;;20802642;28;20237;-67
2022/03/17 15:38:28;;;;;;;0.20;0.10;;;16.60;99.90;;;;;;20800562;28;20234;-66
2022/03/17 15:48:32;;;;;;;0.20;0.00;;;16.30;99.90;;;;;;20797313;28;20213;-64
2022/03/17 15:58:38;;;;;;;0.20;0.10;;;16.40;99.90;;;;;;20798467;28;20261;-64
2022/03/17 16:08:42;;;;;;;0.20;0.00;;;17.20;99.90;;;;;;20796036;28;20271;-64
2022/03/17 16:18:47;;;;;;;0.20;0.10;;;17.10;99.90;;;;;;20793855;28;20233;-76
2022/03/17 16:28:51;;;;;;;0.20;0.00;;;17.70;99.90;;;;;;20794442;28;20222;-74
2022/03/17 16:38:58;;;;;;;0.20;0.10;;;17.20;99.90;;;;;;20793244;28;20318;-77
2022/03/17 16:49:02;;;;;;;0.20;0.10;;;17.00;99.90;;;;;;20792363;28;20195;-74
2022/03/17 16:59:07;;;;;;;0.20;0.10;;;17.00;99.90;;;;;;20789850;28;20237;-75
2022/03/17 17:09:11;;;;;;;0.20;0.00;;;16.70;99.90;;;;;;20772534;28;20191;-75
2022/03/17 17:19:23;;;;;;;0.20;0.10;;;16.30;99.90;;;;;;20790161;28;20554;-76
2022/03/17 17:39:49;;;;;;;0.20;0.10;;;15.90;99.90;;;;;;20790187;28;20222;-73
2022/03/17 17:49:53;;;;;;;0.20;0.00;;;15.80;99.90;;;;;;20790749;28;20207;-65
2022/03/17 17:59:58;;;;;;;0.20;0.10;;;15.50;99.90;;;;;;20794072;28;20238;-70
2022/03/17 18:10:08;;;;;;;0.20;0.10;;;15.30;99.90;;;;;;20790716;28;20359;-73
2022/03/17 18:20:13;;;;;;;8.30;7.30;;;15.20;99.90;;;;;;20792349;28;20230;-69
2022/03/17 18:30:17;;;;;;;1.80;1.70;;;15.00;99.90;;;;;;20793787;28;20222;-68
2022/03/17 18:40:23;;;;;;;0.20;0.00;;;15.00;99.90;;;;;;20790684;28;20234;-69
2022/03/17 18:50:31;;;;;;;0.20;0.10;;;14.90;99.90;;;;;;20789614;28;20234;-69
2022/03/17 19:00:36;;;;;;;0.20;0.10;;;14.80;99.90;;;;;;20789828;28;20258;-69
2022/03/17 19:10:42;;;;;;;0.20;0.00;;;14.90;99.90;;;;;;20798398;28;20211;-69
2022/03/17 19:20:47;;;;;;;0.20;0.10;;;14.80;99.90;;;;;;20806879;28;20223;-69
2022/03/17 19:30:51;;;;;;;0.20;0.00;;;14.80;99.90;;;;;;20805887;28;20300;-68
2022/03/17 19:41:13;;;;;;;0.20;0.10;;;14.80;99.90;;;;;;20792702;28;20241;-69
2022/03/17 19:51:17;;;;;;;0.20;0.00;;;14.70;99.90;;;;;;20792330;28;20241;-69
2022/03/17 20:01:23;;;;;;;0.20;0.10;;;14.70;99.90;;;;;;20716950;28;20223;-69
2022/03/17 20:22:11;;;;;;;0.20;0.00;;;14.70;99.90;;;;;;20768158;28;20234;-69
2022/03/17 20:32:15;;;;;;;0.20;0.10;;;14.90;99.90;;;;;;20759421;28;20303;-70
2022/03/17 20:42:20;;;;;;;0.20;0.00;;;14.90;99.90;;;;;;20761764;28;20334;-69
2022/03/17 20:52:24;;;;;;;0.50;0.50;;;14.90;99.90;;;;;;20743207;28;20319;-72
2022/03/17 21:02:30;;;;;;;0.20;0.10;;;15.10;99.90;;;;;;20740862;28;20237;-72
2022/03/17 21:12:34;;;;;;;0.20;0.00;;;15.00;99.90;;;;;;20765923;28;20206;-68
2022/03/17 21:22:39;;;;;;;0.20;0.10;;;15.00;99.90;;;;;;20737411;28;20238;-69
2022/03/17 21:32:43;;;;;;;0.20;0.10;;;15.10;99.90;;;;;;20730928;28;20219;-67
2022/03/17 21:42:48;;;;;;;0.20;0.10;;;15.20;99.90;;;;;;20784204;28;20225;-67
2022/03/17 21:52:52;;;;;;;0.20;0.03;;;15.30;99.90;;;;;;20800457;28;20230;-67
2022/03/17 22:02:57;;;;;;;0.20;0.10;;;15.50;99.90;;;;;;20797819;28;20238;-66
2022/03/17 22:13:01;;;;;;;0.20;0.00;;;15.70;99.90;;;;;;20721146;28;20208;-68
2022/03/17 22:23:07;;;;;;;0.20;0.20;;;15.40;99.90;;;;;;20723764;28;20223;-66
2022/03/17 22:33:11;;;;;;;0.20;0.10;;;15.50;99.90;;;;;;20722906;28;20233;-66
2022/03/17 22:43:16;;;;;;;0.20;0.00;;;15.60;99.90;;;;;;20803318;28;20219;-78
2022/03/17 22:53:20;;;;;;;0.20;0.10;;;15.60;99.90;;;;;;20786891;28;20223;-77
2022/03/17 23:03:25;;;;;;;0.20;0.10;;;15.60;99.90;;;;;;20763655;28;20242;-77
2022/03/17 23:13:29;;;;;;;0.20;0.10;;;15.70;99.90;;;;;;20770929;28;20219;-77
2022/03/17 23:23:35;;;;;;;0.27;0.23;;;15.60;99.90;;;;;;20765464;28;20234;-78
2022/03/17 23:33:39;;;;;;;0.20;0.10;;;15.50;99.90;;;;;;20771703;28;20237;-78
2022/03/17 23:43:44;;;;;;;0.20;0.20;;;15.50;99.90;;;;;;20769385;28;20242;-77
2022/03/17 23:53:48;;;;;;;0.20;0.00;;;15.60;99.90;;;;;;20779217;28;20211;-77
